createdAt,value
2019-01-18T00:00:41.468Z,128.25
2019-01-18T00:03:14.994Z,111.72
2019-01-18T00:05:42.557Z,111.62
2019-01-18T00:08:10.215Z,111.45
2019-01-18T00:10:37.934Z,111.08
2019-01-18T00:13:05.801Z,112.05
2019-01-18T00:15:33.954Z,123.65
2019-01-18T00:18:01.872Z,123.97
2019-01-18T00:20:29.791Z,120.50
2019-01-18T00:22:58.792Z,123.33
2019-01-18T00:25:26.382Z,115.42
2019-01-18T00:27:53.862Z,117.50
2019-01-18T00:30:21.730Z,118.97
2019-01-18T00:32:56.536Z,113.60
2019-01-18T00:35:24.263Z,114.75
2019-01-18T00:37:52.248Z,121.05
2019-01-18T00:40:20.402Z,114.85
2019-01-18T00:42:52.516Z,123.60
2019-01-18T00:45:20.232Z,132.03
2019-01-18T00:47:48.166Z,129.05
2019-01-18T00:50:16.345Z,130.43
2019-01-18T00:52:44.929Z,131.18
2019-01-18T00:55:13.356Z,141.90
2019-01-18T00:57:41.473Z,140.77
2019-01-18T01:00:13.664Z,144.87
2019-01-18T01:02:41.515Z,148.02
2019-01-18T01:05:10.173Z,150.27
2019-01-18T01:07:38.002Z,142.22
2019-01-18T01:10:06.899Z,134.32
2019-01-18T01:12:35.534Z,131.10
2019-01-18T01:15:08.298Z,128.90
2019-01-18T01:17:38.122Z,126.38
2019-01-18T01:20:07.629Z,125.53
2019-01-18T01:22:36.091Z,120.90
2019-01-18T01:25:06.622Z,123.92
2019-01-18T01:27:39.826Z,122.80
2019-01-18T01:30:14.780Z,121.25
2019-01-18T01:32:46.181Z,124.12
2019-01-18T01:35:15.415Z,115.70
2019-01-18T01:37:45.426Z,121.42
2019-01-18T01:40:16.088Z,120.70
2019-01-18T01:42:44.275Z,136.50
2019-01-18T01:45:13.289Z,138.82
2019-01-18T01:47:41.707Z,137.95
2019-01-18T01:50:13.123Z,138.75
2019-01-18T01:52:42.157Z,141.47
2019-01-18T01:55:11.458Z,146.43
2019-01-18T01:57:39.815Z,152.90
2019-01-18T02:00:15.372Z,154.12
2019-01-18T02:02:46.585Z,151.25
2019-01-18T02:05:15.208Z,149.82
2019-01-18T02:07:43.446Z,156.47
2019-01-18T02:10:14.165Z,151.90
2019-01-18T02:12:42.854Z,149.60
2019-01-18T02:15:14.266Z,151.68
2019-01-18T02:17:42.986Z,151.37
2019-01-18T02:20:13.570Z,148.25
2019-01-18T02:22:41.724Z,144.57
2019-01-18T02:25:10.316Z,141.92
2019-01-18T02:27:40.644Z,139.07
2019-01-18T02:30:14.244Z,136.03
2019-01-18T02:32:42.979Z,134.18
2019-01-18T02:35:11.307Z,131.00
2019-01-18T02:37:39.593Z,135.37
2019-01-18T02:40:08.759Z,137.37
2019-01-18T02:42:38.187Z,136.10
2019-01-18T02:45:08.133Z,138.22
2019-01-18T02:47:36.371Z,136.45
2019-01-18T02:50:05.803Z,129.72
2019-01-18T02:52:34.154Z,131.95
2019-01-18T02:55:05.383Z,133.55
2019-01-18T02:57:34.806Z,130.15
2019-01-18T03:00:06.120Z,127.97
2019-01-18T03:02:34.640Z,136.60
2019-01-18T03:05:04.438Z,135.40
2019-01-18T03:07:32.831Z,134.90
2019-01-18T03:10:10.326Z,130.95
2019-01-18T03:12:38.819Z,128.72
2019-01-18T03:15:07.577Z,134.47
2019-01-18T03:17:35.765Z,130.43
2019-01-18T03:20:05.980Z,130.85
2019-01-18T03:22:34.360Z,134.18
2019-01-18T03:25:02.114Z,131.87
2019-01-18T03:27:30.520Z,135.95
2019-01-18T03:29:58.804Z,132.30
2019-01-18T03:32:27.349Z,127.85
2019-01-18T03:34:55.686Z,133.40
2019-01-18T03:37:24.012Z,126.22
2019-01-18T03:39:59.699Z,123.47
2019-01-18T03:42:27.941Z,124.95
2019-01-18T03:44:57.042Z,120.33
2019-01-18T03:47:25.346Z,124.22
2019-01-18T03:49:53.584Z,121.37
2019-01-18T03:52:21.858Z,127.15
2019-01-18T03:55:01.225Z,121.30
2019-01-18T03:57:29.468Z,124.12
2019-01-18T03:59:59.807Z,127.67
2019-01-18T04:02:28.246Z,127.00
2019-01-18T04:04:57.475Z,123.58
2019-01-18T04:07:25.867Z,123.90
2019-01-18T04:09:53.899Z,117.35
2019-01-18T04:12:22.424Z,115.10
2019-01-18T04:14:51.916Z,105.15
2019-01-18T04:17:20.171Z,107.85
2019-01-18T04:19:52.562Z,105.72
2019-01-18T04:22:20.841Z,103.90
2019-01-18T04:24:49.495Z,96.17
2019-01-18T04:27:17.814Z,97.78
2019-01-18T04:29:46.466Z,104.20
2019-01-18T04:32:14.759Z,107.32
2019-01-18T04:34:42.480Z,116.97
2019-01-18T04:37:10.331Z,124.78
2019-01-18T04:39:39.381Z,125.72
2019-01-18T04:42:07.156Z,133.35
2019-01-18T04:44:34.804Z,131.78
2019-01-18T04:47:02.590Z,127.82
2019-01-18T04:49:30.529Z,127.45
2019-01-18T04:52:00.441Z,131.82
2019-01-18T04:54:28.845Z,129.57
2019-01-18T04:56:56.913Z,127.32
2019-01-18T04:59:24.876Z,128.57
2019-01-18T05:01:53.951Z,126.47
2019-01-18T05:04:25.004Z,128.80
2019-01-18T05:06:53.714Z,126.15
2019-01-18T05:09:21.345Z,127.80
2019-01-18T05:11:48.978Z,135.03
2019-01-18T05:14:16.951Z,137.80
2019-01-18T05:16:44.796Z,145.35
2019-01-18T05:19:12.620Z,141.35
2019-01-18T05:21:40.644Z,147.40
2019-01-18T05:24:08.358Z,140.55
2019-01-18T05:26:36.294Z,145.82
2019-01-18T05:29:04.278Z,146.20
2019-01-18T05:31:32.011Z,139.77
2019-01-18T05:34:02.339Z,128.57
2019-01-18T05:36:30.294Z,134.78
2019-01-18T05:38:58.118Z,128.35
2019-01-18T05:41:25.842Z,118.72
2019-01-18T05:43:53.507Z,106.10
2019-01-18T05:46:21.225Z,105.00
2019-01-18T05:48:49.126Z,103.17
2019-01-18T05:51:16.709Z,97.97
2019-01-18T05:53:45.581Z,101.47
2019-01-18T05:56:14.100Z,98.00
2019-01-18T05:58:42.644Z,102.17
2019-01-18T06:01:12.602Z,106.45
2019-01-18T06:03:40.525Z,107.10
2019-01-18T06:06:08.254Z,110.15
2019-01-18T06:08:36.265Z,108.52
2019-01-18T06:11:04.580Z,115.65
2019-01-18T06:13:32.846Z,108.65
2019-01-18T06:16:01.395Z,116.00
2019-01-18T06:18:32.156Z,113.70
2019-01-18T06:20:59.977Z,108.12
2019-01-18T06:23:27.865Z,107.22
2019-01-18T06:25:57.028Z,110.15
2019-01-18T06:28:25.670Z,103.12
2019-01-18T06:30:53.410Z,104.50
2019-01-18T06:33:22.202Z,101.15
2019-01-18T06:35:50.098Z,106.35
2019-01-18T06:38:18.816Z,113.20
2019-01-18T06:40:47.680Z,115.15
2019-01-18T06:43:15.269Z,115.08
2019-01-18T06:45:44.007Z,119.15
2019-01-18T06:48:14.817Z,117.53
2019-01-18T06:50:42.595Z,125.97
2019-01-18T06:53:10.191Z,124.87
2019-01-18T06:55:38.826Z,132.55
2019-01-18T06:58:06.558Z,126.40
2019-01-18T07:00:34.680Z,132.05
2019-01-18T07:03:02.522Z,127.80
2019-01-18T07:05:30.468Z,131.03
2019-01-18T07:07:58.521Z,127.30
2019-01-18T07:10:26.311Z,105.45
2019-01-18T07:12:57.411Z,115.85
2019-01-18T07:15:26.305Z,112.08
2019-01-18T07:18:00.273Z,105.10
2019-01-18T07:20:28.011Z,108.55
2019-01-18T07:22:55.952Z,103.62
2019-01-18T07:25:26.058Z,111.45
2019-01-18T07:27:54.037Z,102.42
2019-01-18T07:30:28.618Z,90.97
2019-01-18T07:32:56.483Z,92.37
2019-01-18T07:35:24.567Z,90.10
2019-01-18T07:37:53.515Z,94.28
2019-01-18T07:40:21.355Z,89.80
2019-01-18T07:42:49.031Z,89.75
2019-01-18T07:45:25.219Z,93.52
2019-01-18T07:47:53.524Z,119.95
2019-01-18T07:50:21.365Z,139.85
2019-01-18T07:52:50.462Z,148.75
2019-01-18T07:55:18.575Z,142.03
2019-01-18T07:57:46.561Z,132.05
2019-01-18T08:00:19.811Z,152.07
2019-01-18T08:02:47.668Z,157.90
2019-01-18T08:05:16.127Z,166.00
2019-01-18T08:07:44.252Z,164.50
2019-01-18T08:10:14.043Z,165.95
2019-01-18T08:12:43.230Z,165.32
2019-01-18T08:15:14.662Z,167.62
2019-01-18T08:17:48.168Z,178.60
2019-01-18T08:20:19.126Z,179.10
2019-01-18T08:22:47.269Z,188.18
2019-01-18T08:25:15.365Z,192.40
2019-01-18T08:27:45.138Z,204.97
2019-01-18T08:30:18.099Z,201.12
2019-01-18T08:32:48.024Z,189.62
2019-01-18T08:35:16.850Z,189.97
2019-01-18T08:37:45.642Z,188.57
2019-01-18T08:40:16.351Z,176.93
2019-01-18T08:42:45.137Z,179.78
2019-01-18T08:45:16.860Z,176.80
2019-01-18T08:47:46.843Z,176.53
2019-01-18T08:50:15.419Z,163.65
2019-01-18T08:52:50.803Z,167.62
2019-01-18T08:55:18.746Z,165.43
2019-01-18T08:57:46.392Z,154.23
2019-01-18T09:00:17.271Z,150.80
2019-01-18T09:02:48.088Z,152.95
2019-01-18T09:05:18.126Z,153.47
2019-01-18T09:07:45.730Z,158.32
2019-01-18T09:10:14.896Z,145.95
2019-01-18T09:12:42.647Z,134.07
2019-01-18T09:15:11.068Z,126.72
2019-01-18T09:17:40.275Z,123.53
2019-01-18T09:20:17.362Z,114.40
2019-01-18T09:22:46.424Z,124.85
2019-01-18T09:25:14.588Z,127.90
2019-01-18T09:27:43.376Z,131.45
2019-01-18T09:30:14.032Z,134.07
2019-01-18T09:32:42.119Z,138.47
2019-01-18T09:35:11.161Z,138.00
2019-01-18T09:37:41.162Z,132.97
2019-01-18T09:40:13.045Z,136.25
2019-01-18T09:42:43.744Z,135.88
2019-01-18T09:45:12.487Z,133.12
2019-01-18T09:47:45.729Z,138.15
2019-01-18T09:50:16.016Z,140.47
2019-01-18T09:52:44.769Z,141.12
2019-01-18T09:55:12.489Z,136.20
2019-01-18T09:57:40.817Z,146.30
2019-01-18T10:00:17.887Z,140.68
2019-01-18T10:02:48.979Z,137.88
2019-01-18T10:05:17.070Z,145.82
2019-01-18T10:07:44.852Z,140.43
2019-01-18T10:10:15.483Z,143.30
2019-01-18T10:12:43.442Z,142.50
2019-01-18T10:15:22.230Z,144.77
2019-01-18T10:18:00.387Z,144.57
2019-01-18T10:20:23.958Z,142.43
2019-01-18T10:22:51.750Z,138.18
2019-01-18T10:25:19.621Z,143.87
2019-01-18T10:27:47.620Z,148.10
2019-01-18T10:30:17.779Z,148.30
2019-01-18T10:32:49.548Z,148.35
2019-01-18T10:35:18.274Z,149.75
2019-01-18T10:37:47.770Z,152.68
2019-01-18T10:40:15.807Z,155.57
2019-01-18T10:42:44.257Z,160.35
2019-01-18T10:45:12.612Z,161.35
2019-01-18T10:47:44.155Z,164.93
2019-01-18T10:50:14.943Z,175.40
2019-01-18T10:52:42.828Z,170.10
2019-01-18T10:55:11.046Z,170.45
2019-01-18T10:57:38.809Z,178.12
2019-01-18T11:00:12.970Z,173.32
2019-01-18T11:02:44.021Z,166.80
2019-01-18T11:05:12.535Z,166.90
2019-01-18T11:07:41.443Z,163.22
2019-01-18T11:10:10.831Z,166.00
2019-01-18T11:12:38.812Z,178.78
2019-01-18T11:15:09.186Z,170.43
2019-01-18T11:17:39.468Z,164.75
2019-01-18T11:20:16.421Z,167.55
2019-01-18T11:22:45.384Z,160.52
2019-01-18T11:25:14.534Z,157.82
2019-01-18T11:27:44.660Z,155.93
2019-01-18T11:30:14.217Z,156.87
2019-01-18T11:32:42.089Z,154.38
2019-01-18T11:35:09.807Z,160.90
2019-01-18T11:37:37.560Z,158.47
2019-01-18T11:40:12.588Z,164.77
2019-01-18T11:42:40.408Z,154.85
2019-01-18T11:45:09.158Z,150.65
2019-01-18T11:47:37.362Z,151.07
2019-01-18T11:50:07.448Z,152.80
2019-01-18T11:52:35.225Z,150.85
2019-01-18T11:55:03.873Z,146.82
2019-01-18T11:57:31.775Z,148.35
2019-01-18T11:59:59.572Z,146.02
2019-01-18T12:02:27.418Z,147.40
2019-01-18T12:04:56.199Z,145.20
2019-01-18T12:07:23.903Z,143.43
2019-01-18T12:09:54.115Z,148.62
2019-01-18T12:12:21.691Z,149.20
2019-01-18T12:14:50.529Z,146.13
2019-01-18T12:17:18.235Z,140.65
2019-01-18T12:19:46.253Z,145.55
2019-01-18T12:22:14.260Z,138.77
2019-01-18T12:24:43.139Z,129.90
2019-01-18T12:27:11.628Z,130.37
2019-01-18T12:29:39.479Z,123.25
2019-01-18T12:32:07.770Z,130.43
2019-01-18T12:34:35.347Z,136.18
2019-01-18T12:37:04.068Z,136.05
2019-01-18T12:39:32.466Z,138.75
2019-01-18T12:42:00.314Z,143.62
2019-01-18T12:44:27.978Z,145.72
2019-01-18T12:46:57.020Z,144.57
2019-01-18T12:49:24.658Z,145.47
2019-01-18T12:51:52.302Z,143.05
2019-01-18T12:54:20.740Z,145.10
2019-01-18T12:56:48.694Z,144.15
2019-01-18T12:59:16.638Z,144.75
2019-01-18T13:01:46.358Z,145.50
2019-01-18T13:04:14.366Z,152.38
2019-01-18T13:06:43.022Z,146.47
2019-01-18T13:09:10.624Z,151.85
2019-01-18T13:11:38.315Z,147.60
2019-01-18T13:14:06.382Z,150.75
2019-01-18T13:16:37.139Z,145.70
2019-01-18T13:19:07.890Z,139.03
2019-01-18T13:21:36.763Z,140.57
2019-01-18T13:24:04.735Z,138.47
2019-01-18T13:26:32.446Z,140.85
2019-01-18T13:29:00.938Z,137.92
2019-01-18T13:31:28.536Z,133.82
2019-01-18T13:33:56.586Z,127.95
2019-01-18T13:36:24.485Z,120.35
2019-01-18T13:38:53.139Z,111.03
2019-01-18T13:41:20.984Z,104.38
2019-01-18T13:43:48.979Z,104.97
2019-01-18T13:46:16.822Z,101.78
2019-01-18T13:48:50.257Z,97.22
2019-01-18T13:51:18.359Z,94.05
2019-01-18T13:53:48.108Z,86.17
2019-01-18T13:56:15.728Z,80.05
2019-01-18T13:58:43.514Z,78.17
2019-01-18T14:01:11.589Z,77.30
2019-01-18T14:03:39.144Z,77.50
2019-01-18T14:06:06.988Z,76.42
2019-01-18T14:08:34.849Z,69.35
2019-01-18T14:11:07.148Z,71.85
2019-01-18T14:13:37.503Z,69.00
2019-01-18T14:16:05.011Z,66.82
2019-01-18T14:18:32.896Z,67.72
2019-01-18T14:21:00.753Z,67.80
2019-01-18T14:23:28.711Z,68.72
2019-01-18T14:25:56.681Z,62.35
2019-01-18T14:28:25.629Z,66.53
2019-01-18T14:30:55.120Z,67.53
2019-01-18T14:33:22.739Z,67.15
2019-01-18T14:35:55.143Z,66.90
2019-01-18T14:38:25.140Z,62.65
2019-01-18T14:40:54.846Z,66.70
2019-01-18T14:43:25.880Z,70.25
2019-01-18T14:45:53.500Z,72.90
2019-01-18T14:48:21.132Z,68.57
2019-01-18T14:50:54.710Z,73.97
2019-01-18T14:53:22.695Z,73.75
2019-01-18T14:55:51.794Z,73.00
2019-01-18T14:58:19.480Z,68.95
2019-01-18T15:00:47.140Z,71.82
2019-01-18T15:03:16.005Z,76.70
2019-01-18T15:05:52.344Z,73.55
2019-01-18T15:08:24.205Z,72.78
2019-01-18T15:10:49.679Z,77.72
2019-01-18T15:13:18.149Z,75.40
2019-01-18T15:15:45.929Z,78.20
2019-01-18T15:18:14.183Z,79.65
2019-01-18T15:20:41.965Z,77.08
2019-01-18T15:23:09.865Z,77.15
2019-01-18T15:25:38.184Z,78.97
2019-01-18T15:28:07.374Z,85.03
2019-01-18T15:30:35.312Z,86.37
2019-01-18T15:33:08.998Z,83.00
2019-01-18T15:35:35.918Z,78.40
2019-01-18T15:38:05.082Z,68.22
2019-01-18T15:40:34.887Z,65.67
2019-01-18T15:43:03.776Z,67.20
2019-01-18T15:45:31.512Z,70.12
2019-01-18T15:47:59.754Z,69.87
2019-01-18T15:50:30.016Z,65.95
2019-01-18T15:52:58.012Z,71.15
2019-01-18T15:55:26.300Z,75.92
2019-01-18T15:57:55.241Z,83.90
2019-01-18T16:00:35.373Z,90.70
2019-01-18T16:03:03.929Z,96.30
2019-01-18T16:05:31.879Z,103.15
2019-01-18T16:07:59.465Z,112.20
2019-01-18T16:10:27.158Z,123.78
2019-01-18T16:12:56.924Z,121.80
2019-01-18T16:15:31.979Z,125.53
2019-01-18T16:17:59.911Z,126.67
2019-01-18T16:20:27.570Z,126.47
2019-01-18T16:22:56.362Z,173.35
2019-01-18T16:25:26.351Z,152.65
2019-01-18T16:27:53.980Z,134.07
2019-01-18T16:30:21.713Z,129.05
2019-01-18T16:32:49.335Z,140.77
2019-01-18T16:35:18.464Z,126.35
2019-01-18T16:37:48.106Z,123.45
2019-01-18T16:40:18.873Z,124.60
2019-01-18T16:42:51.626Z,121.00
2019-01-18T16:45:19.290Z,132.75
2019-01-18T16:47:50.550Z,128.85
2019-01-18T16:50:18.300Z,127.12
2019-01-18T16:52:46.182Z,128.93
2019-01-18T16:55:14.322Z,121.90
2019-01-18T16:57:43.987Z,135.80
2019-01-18T17:00:24.079Z,154.32
2019-01-18T17:02:52.116Z,135.85
2019-01-18T17:05:19.902Z,134.60
2019-01-18T17:07:48.106Z,126.87
2019-01-18T17:10:16.351Z,124.38
2019-01-18T17:12:45.461Z,138.03
2019-01-18T17:15:13.456Z,148.70
2019-01-18T17:17:45.556Z,153.95
2019-01-18T17:20:19.320Z,152.82
2019-01-18T17:22:51.667Z,149.80
2019-01-18T17:25:19.502Z,156.93
2019-01-18T17:27:49.298Z,150.60
2019-01-18T17:30:18.171Z,146.62
2019-01-18T17:32:46.405Z,150.27
2019-01-18T17:35:18.270Z,157.60
2019-01-18T17:37:52.756Z,163.62
2019-01-18T17:40:47.355Z,173.50
2019-01-18T17:44:10.966Z,183.03
2019-01-18T17:47:29.570Z,204.23
2019-01-18T17:50:38.402Z,227.45
2019-01-18T17:53:54.211Z,253.18
2019-01-18T17:57:09.757Z,290.02
2019-01-18T18:00:20.512Z,308.52
2019-01-18T18:03:03.229Z,329.15
2019-01-18T18:05:55.456Z,323.98
2019-01-18T18:08:38.011Z,316.27
2019-01-18T18:11:38.781Z,326.02
2019-01-18T18:14:35.973Z,309.90
2019-01-18T18:17:17.311Z,283.07
2019-01-18T18:20:23.830Z,284.20
2019-01-18T18:23:06.268Z,266.80
2019-01-18T18:26:25.118Z,262.38
2019-01-18T18:29:26.584Z,283.13
2019-01-18T18:32:47.040Z,279.32
2019-01-18T18:36:01.273Z,273.55
2019-01-18T18:39:12.024Z,254.65
2019-01-18T18:42:07.120Z,253.77
2019-01-18T18:45:25.244Z,253.83
2019-01-18T18:48:16.400Z,256.73
2019-01-18T18:51:37.683Z,281.13
2019-01-18T18:54:55.606Z,285.13
2019-01-18T18:58:15.826Z,286.52
2019-01-18T19:01:25.094Z,281.00
2019-01-18T19:04:04.607Z,288.35
2019-01-18T19:07:21.827Z,285.98
2019-01-18T19:10:24.447Z,288.27
2019-01-18T19:13:13.060Z,290.00
2019-01-18T19:16:07.395Z,288.00
2019-01-18T19:19:14.080Z,292.00
2019-01-18T19:22:23.643Z,283.10
2019-01-18T19:25:51.357Z,291.60
2019-01-18T19:29:07.047Z,295.85
2019-01-18T19:32:27.653Z,302.65
2019-01-18T19:35:20.434Z,286.00
2019-01-18T19:38:29.469Z,275.40
2019-01-18T19:41:24.049Z,283.40
2019-01-18T19:44:24.252Z,281.08
2019-01-18T19:47:21.579Z,270.15
2019-01-18T19:50:41.594Z,280.80
2019-01-18T19:53:45.696Z,259.77
2019-01-18T19:56:34.561Z,241.17
2019-01-18T19:59:35.824Z,238.45
2019-01-18T20:02:30.524Z,235.08
2019-01-18T20:05:41.842Z,230.47
2019-01-18T20:08:22.556Z,248.60
2019-01-18T20:11:04.044Z,272.95
2019-01-18T20:13:44.731Z,270.52
2019-01-18T20:16:47.747Z,284.43
2019-01-18T20:19:52.810Z,270.02
2019-01-18T20:22:59.354Z,277.95
2019-01-18T20:25:58.909Z,279.98
2019-01-18T20:28:52.496Z,282.20
2019-01-18T20:31:50.117Z,266.68
2019-01-18T20:34:39.933Z,275.15
2019-01-18T20:37:37.781Z,265.45
2019-01-18T20:40:50.322Z,271.18
2019-01-18T20:44:18.543Z,250.13
2019-01-18T20:47:24.759Z,251.00
2019-01-18T20:50:20.892Z,232.40
2019-01-18T20:53:11.886Z,238.20
2019-01-18T20:56:26.563Z,223.43
2019-01-18T20:59:36.051Z,216.02
2019-01-18T21:02:50.696Z,215.70
2019-01-18T21:05:45.783Z,217.15
2019-01-18T21:08:38.453Z,232.90
2019-01-18T21:11:53.623Z,228.12
2019-01-18T21:15:08.883Z,229.30
2019-01-18T21:17:56.332Z,235.23
2019-01-18T21:21:01.330Z,236.07
2019-01-18T21:23:58.678Z,252.43
2019-01-18T21:27:00.853Z,267.25
2019-01-18T21:30:04.649Z,267.45
2019-01-18T21:33:06.408Z,260.30
2019-01-18T21:36:04.735Z,265.15
2019-01-18T21:39:20.230Z,266.70
2019-01-18T21:42:20.033Z,263.75
2019-01-18T21:45:27.219Z,277.50
2019-01-18T21:48:36.572Z,273.85
2019-01-18T21:52:01.653Z,270.63
2019-01-18T21:54:58.862Z,270.93
2019-01-18T21:58:04.582Z,241.78
2019-01-18T22:01:13.538Z,266.25
2019-01-18T22:04:16.310Z,255.55
2019-01-18T22:07:21.799Z,283.13
2019-01-18T22:10:30.330Z,267.35
2019-01-18T22:13:57.551Z,263.18
2019-01-18T22:16:57.626Z,255.00
2019-01-18T22:20:09.471Z,259.55
2019-01-18T22:23:01.578Z,255.50
2019-01-18T22:25:56.747Z,254.35
2019-01-18T22:28:35.316Z,259.10
2019-01-18T22:31:25.046Z,249.77
2019-01-18T22:34:22.902Z,255.62
2019-01-18T22:37:22.051Z,277.48
2019-01-18T22:40:29.833Z,295.57
2019-01-18T22:43:29.952Z,289.25
2019-01-18T22:47:00.430Z,284.43
2019-01-18T22:49:59.456Z,275.87
2019-01-18T22:53:05.007Z,277.38
2019-01-18T22:55:56.868Z,275.62
2019-01-18T22:59:19.383Z,285.65
2019-01-18T23:02:14.979Z,263.07
2019-01-18T23:05:28.408Z,276.65
2019-01-18T23:08:34.268Z,301.80
2019-01-18T23:11:39.994Z,313.90
2019-01-18T23:14:59.933Z,295.57
2019-01-18T23:17:47.569Z,297.88
2019-01-18T23:20:54.021Z,289.95
2019-01-18T23:23:55.517Z,282.27
2019-01-18T23:27:14.914Z,277.25
2019-01-18T23:30:08.295Z,272.48
2019-01-18T23:33:23.085Z,261.90
2019-01-18T23:36:43.060Z,240.55
2019-01-18T23:39:33.893Z,234.10
2019-01-18T23:42:52.257Z,213.95
2019-01-18T23:45:42.659Z,225.57
2019-01-18T23:48:40.545Z,213.32
2019-01-18T23:52:14.068Z,215.60
2019-01-18T23:55:11.451Z,201.90
2019-01-18T23:58:06.366Z,198.38
